Time;durP1;ratioP1;P1;durP2;ratioP2;P2;SDS_P1;SDS_P2;PMS_P1;PMS_P2;Temp;Humidity;BMP_temperature;BMP_pressure;BME280_temperature;BME280_humidity;BME280_pressure;Samples;Min_cycle;Max_cycle;Signal;HPM_P1;HPM_P2
2022/09/22 00:01:00;;;;;;;1.92;1.08;;;5.60;99.90;;;;;;5127390;27;20043;-45
2022/09/22 00:03:33;;;;;;;1.65;1.10;;;5.60;99.90;;;;;;5127004;27;20049;-46
2022/09/22 00:06:20;;;;;;;2.38;1.08;;;5.60;99.90;;;;;;5129866;27;20043;-48
2022/09/22 00:08:50;;;;;;;4.40;1.00;;;5.60;99.90;;;;;;5123644;27;20050;-46
2022/09/22 00:11:23;;;;;;;3.58;1.40;;;5.60;99.90;;;;;;5122439;27;20036;-47
2022/09/22 00:13:53;;;;;;;3.05;1.58;;;5.60;99.90;;;;;;5127861;27;20070;-46
2022/09/22 00:16:25;;;;;;;3.50;1.30;;;5.60;99.90;;;;;;5119344;27;20216;-46
2022/09/22 00:18:52;;;;;;;4.90;1.42;;;5.60;99.90;;;;;;5113986;28;20055;-46
2022/09/22 00:21:21;;;;;;;3.22;1.30;;;5.60;99.90;;;;;;5112965;28;20126;-46
2022/09/22 00:23:48;;;;;;;3.80;1.70;;;5.60;99.90;;;;;;5113825;27;20055;-47
2022/09/22 00:26:19;;;;;;;4.95;1.85;;;5.50;99.90;;;;;;5130653;27;20046;-46
2022/09/22 00:33:06;;;;;;;2.70;1.30;;;5.40;99.90;;;;;;5079122;28;20087;-49
2022/09/22 00:35:36;;;;;;;3.33;1.27;;;5.40;99.90;;;;;;5053634;28;20130;-48
2022/09/22 00:38:04;;;;;;;2.55;1.40;;;5.40;99.90;;;;;;5074133;28;20147;-48
2022/09/22 00:40:33;;;;;;;2.30;1.38;;;5.40;99.90;;;;;;5093193;28;20040;-48
2022/09/22 00:43:24;;;;;;;1.73;1.40;;;5.40;99.90;;;;;;5098085;28;20089;-48
2022/09/22 00:45:55;;;;;;;4.78;1.30;;;5.40;99.90;;;;;;5090763;28;20131;-48
2022/09/22 00:48:23;;;;;;;5.38;1.20;;;5.40;99.90;;;;;;5092201;28;20068;-49
2022/09/22 00:50:53;;;;;;;3.13;1.52;;;5.30;99.90;;;;;;5091745;28;20122;-49
2022/09/22 00:53:21;;;;;;;3.80;1.48;;;5.30;99.90;;;;;;5092685;28;20127;-49
2022/09/22 00:55:51;;;;;;;3.47;2.15;;;5.20;99.90;;;;;;5098198;28;20122;-48
2022/09/22 00:58:24;;;;;;;7.55;1.80;;;5.20;99.90;;;;;;5092230;28;20123;-48
2022/09/22 01:00:51;;;;;;;2.70;1.33;;;5.10;99.90;;;;;;5073797;28;20123;-47
2022/09/22 01:03:21;;;;;;;3.67;1.15;;;5.10;99.90;;;;;;5091699;28;20574;-48
2022/09/22 01:05:59;;;;;;;4.32;1.17;;;5.10;99.90;;;;;;5091408;28;20543;-48
2022/09/22 01:08:28;;;;;;;2.00;1.30;;;5.00;99.90;;;;;;5090901;28;20503;-48
2022/09/22 01:10:56;;;;;;;2.45;1.20;;;5.00;99.90;;;;;;5091985;28;20723;-48
2022/09/22 01:13:25;;;;;;;2.35;1.25;;;5.10;99.90;;;;;;5091554;28;20071;-48
2022/09/22 01:16:19;;;;;;;1.70;1.25;;;5.00;99.90;;;;;;5092352;28;20581;-48
2022/09/22 01:19:06;;;;;;;3.25;1.30;;;5.10;99.90;;;;;;5091402;28;20071;-48
2022/09/22 01:21:37;;;;;;;4.20;1.17;;;5.00;99.90;;;;;;5092130;28;20531;-48
2022/09/22 01:24:13;;;;;;;2.30;0.93;;;4.90;99.90;;;;;;5091568;28;20123;-48
2022/09/22 01:27:01;;;;;;;3.20;1.80;;;4.80;99.90;;;;;;5092279;28;20075;-48
2022/09/22 01:29:42;;;;;;;3.17;2.40;;;4.70;99.90;;;;;;5090633;28;20484;-48
2022/09/22 01:32:31;;;;;;;2.38;1.52;;;4.70;99.90;;;;;;5100992;28;20123;-50
2022/09/22 01:34:57;;;;;;;3.40;1.75;;;4.70;99.90;;;;;;5089048;28;20123;-48
2022/09/22 01:37:49;;;;;;;1.93;1.27;;;4.70;99.90;;;;;;5079988;28;20463;-48
2022/09/22 01:40:29;;;;;;;5.97;2.10;;;4.80;99.90;;;;;;5071457;28;20870;-48
2022/09/22 01:43:40;;;;;;;3.90;1.75;;;4.70;99.90;;;;;;5076446;28;20561;-49
2022/09/22 01:46:19;;;;;;;3.08;1.48;;;4.70;99.90;;;;;;5092056;28;20072;-49
2022/09/22 01:48:49;;;;;;;3.10;1.80;;;4.70;99.90;;;;;;5091930;28;20093;-48
2022/09/22 01:52:00;;;;;;;2.80;1.90;;;4.60;99.90;;;;;;5090709;28;20118;-49
2022/09/22 01:54:32;;;;;;;4.43;2.10;;;4.70;99.90;;;;;;5069451;28;20151;-49
2022/09/22 01:57:25;;;;;;;3.63;1.90;;;4.60;99.90;;;;;;5087223;28;20040;-48
2022/09/22 01:59:58;;;;;;;2.65;1.42;;;4.60;99.90;;;;;;5090849;28;20048;-48
2022/09/22 02:02:33;;;;;;;2.97;1.63;;;4.60;99.90;;;;;;5091334;28;20075;-48
2022/09/22 02:05:10;;;;;;;3.33;1.75;;;4.60;99.90;;;;;;5090401;28;20089;-48
2022/09/22 02:07:46;;;;;;;2.97;1.60;;;4.60;99.90;;;;;;5091331;28;20078;-48
2022/09/22 02:10:16;;;;;;;3.28;1.67;;;4.50;99.90;;;;;;5090753;28;20458;-47
2022/09/22 02:12:43;;;;;;;4.22;1.70;;;4.40;99.90;;;;;;5091704;28;20119;-48
2022/09/22 02:15:58;;;;;;;3.30;2.10;;;4.40;99.90;;;;;;5090452;28;20523;-48
2022/09/22 02:18:02;;;;;;;1.90;1.30;;;4.30;99.90;;;;;;5091005;28;20075;-49
2022/09/22 02:20:29;;;;;;;4.07;1.45;;;4.20;99.90;;;;;;5090849;28;20068;-50
2022/09/22 02:22:56;;;;;;;2.13;1.00;;;4.10;99.90;;;;;;5096250;28;20127;-48
2022/09/22 02:25:23;;;;;;;2.13;1.40;;;4.10;99.90;;;;;;5108937;28;20071;-49
2022/09/22 02:27:53;;;;;;;2.40;1.33;;;4.10;99.90;;;;;;5092105;28;20115;-50
2022/09/22 02:30:21;;;;;;;2.50;1.40;;;4.10;99.90;;;;;;5090784;28;20166;-48
2022/09/22 02:32:51;;;;;;;2.50;1.38;;;4.00;99.90;;;;;;5090764;28;20036;-48
2022/09/22 02:35:19;;;;;;;3.65;1.35;;;4.10;99.90;;;;;;5090864;28;20064;-47
2022/09/22 02:38:18;;;;;;;2.60;1.67;;;4.10;99.90;;;;;;5090254;28;20075;-49
2022/09/22 02:41:10;;;;;;;1.45;1.15;;;4.00;99.90;;;;;;5104953;28;20131;-48
2022/09/22 02:43:49;;;;;;;3.17;1.67;;;4.00;99.90;;;;;;5111165;28;20085;-48
2022/09/22 02:46:30;;;;;;;4.13;1.30;;;4.10;99.90;;;;;;5099650;28;20122;-50
2022/09/22 02:49:04;;;;;;;2.17;1.52;;;4.00;99.90;;;;;;5072949;28;20393;-48
2022/09/22 02:51:32;;;;;;;1.77;1.25;;;4.00;99.90;;;;;;5089734;28;20064;-48
2022/09/22 02:53:58;;;;;;;;;;;4.10;99.90;;;;;;5090988;28;20036;-48
2022/09/22 02:56:25;;;;;;;1.92;1.40;;;4.00;99.90;;;;;;5089549;28;19954;-48
2022/09/22 02:58:52;;;;;;;2.75;1.55;;;4.00;99.90;;;;;;5090930;28;20468;-47
2022/09/22 03:01:24;;;;;;;2.40;1.38;;;4.00;99.90;;;;;;5090327;28;20377;-48
2022/09/22 03:03:51;;;;;;;3.15;1.48;;;4.00;99.90;;;;;;5090754;28;20083;-48
2022/09/22 03:06:17;;;;;;;1.65;1.17;;;4.00;99.90;;;;;;5089499;28;20071;-48
2022/09/22 03:08:44;;;;;;;2.40;1.35;;;4.00;99.90;;;;;;5090850;28;20115;-49
2022/09/22 03:11:11;;;;;;;5.68;1.70;;;4.10;99.90;;;;;;5090922;28;20488;-48
2022/09/22 03:13:37;;;;;;;4.53;1.40;;;4.10;99.90;;;;;;5091040;28;20503;-48
2022/09/22 03:16:05;;;;;;;3.72;1.70;;;4.10;99.90;;;;;;5103321;28;20071;-47
2022/09/22 03:18:32;;;;;;;2.95;1.75;;;4.10;99.90;;;;;;5074565;28;20048;-49
2022/09/22 03:20:58;;;;;;;3.45;1.88;;;4.10;99.90;;;;;;5080042;28;20118;-48
2022/09/22 03:23:25;;;;;;;2.65;1.42;;;4.10;99.90;;;;;;5094543;28;20135;-49
2022/09/22 03:25:52;;;;;;;2.17;1.35;;;4.10;99.90;;;;;;5093733;28;20127;-48
2022/09/22 03:28:20;;;;;;;3.35;1.23;;;4.10;99.90;;;;;;5082869;28;20481;-47
2022/09/22 03:30:46;;;;;;;3.00;1.42;;;4.10;99.90;;;;;;5090479;28;20136;-48
2022/09/22 03:33:13;;;;;;;3.10;1.58;;;4.10;99.90;;;;;;5094330;28;20504;-48
2022/09/22 03:35:40;;;;;;;1.98;1.05;;;4.10;99.90;;;;;;5092794;28;20056;-47
2022/09/22 03:38:07;;;;;;;2.40;1.60;;;4.00;99.90;;;;;;5093120;28;20064;-48
2022/09/22 03:40:33;;;;;;;1.58;1.10;;;4.00;99.90;;;;;;5093711;28;20072;-48
2022/09/22 03:43:00;;;;;;;2.70;1.45;;;4.00;99.90;;;;;;5093343;28;20119;-49
2022/09/22 03:45:27;;;;;;;2.65;1.05;;;3.90;99.90;;;;;;5090682;28;20553;-48
2022/09/22 03:47:54;;;;;;;3.35;1.65;;;3.80;99.90;;;;;;5092673;28;20094;-48
2022/09/22 03:50:21;;;;;;;4.72;1.55;;;3.80;99.90;;;;;;5074189;28;20062;-48
2022/09/22 03:52:47;;;;;;;3.75;1.75;;;3.80;99.90;;;;;;5091096;28;20040;-48
2022/09/22 03:55:14;;;;;;;2.92;1.45;;;3.80;99.90;;;;;;5092877;28;20054;-49
2022/09/22 03:57:42;;;;;;;3.70;1.50;;;3.80;99.90;;;;;;5092438;28;20040;-47
2022/09/22 04:00:10;;;;;;;4.20;1.58;;;3.80;99.90;;;;;;5087394;28;20050;-47
2022/09/22 04:02:40;;;;;;;3.53;1.73;;;3.80;99.90;;;;;;5087814;28;20052;-47
2022/09/22 04:05:07;;;;;;;3.83;1.90;;;3.80;99.90;;;;;;5092434;28;20047;-47
2022/09/22 04:07:34;;;;;;;;;;;3.80;99.90;;;;;;5102813;28;20075;-49
2022/09/22 04:10:01;;;;;;;3.03;1.90;;;3.80;99.90;;;;;;5092249;28;20019;-49
2022/09/22 04:12:28;;;;;;;3.67;2.00;;;3.80;99.90;;;;;;5093357;28;20058;-48
2022/09/22 04:14:55;;;;;;;7.43;1.50;;;3.80;99.90;;;;;;5088278;28;20127;-48
2022/09/22 04:17:21;;;;;;;2.72;1.95;;;3.80;99.90;;;;;;5095554;28;20078;-48
2022/09/22 04:19:48;;;;;;;3.08;1.40;;;3.80;99.90;;;;;;5099538;28;20123;-49
2022/09/22 04:22:15;;;;;;;3.42;1.35;;;3.80;99.90;;;;;;5092313;28;20119;-48
2022/09/22 04:24:42;;;;;;;1.63;1.00;;;3.80;99.90;;;;;;5089355;28;20115;-48
2022/09/22 04:27:08;;;;;;;2.85;1.52;;;3.70;99.90;;;;;;5092583;28;20147;-47
2022/09/22 04:29:46;;;;;;;4.90;2.07;;;3.70;99.90;;;;;;5091455;28;20044;-49
2022/09/22 04:32:13;;;;;;;2.47;1.65;;;3.70;99.90;;;;;;5091963;28;20069;-49
2022/09/22 04:34:40;;;;;;;3.00;1.70;;;3.70;99.90;;;;;;5087447;28;20042;-47
2022/09/22 04:37:07;;;;;;;2.92;1.40;;;3.60;99.90;;;;;;5103800;28;20078;-48
2022/09/22 04:39:34;;;;;;;7.80;2.88;;;3.60;99.90;;;;;;5092757;28;20102;-48
2022/09/22 04:42:01;;;;;;;;;;;3.60;99.90;;;;;;5074309;28;20471;-48
2022/09/22 04:44:28;;;;;;;4.03;2.20;;;3.60;99.90;;;;;;5092337;28;20018;-48
2022/09/22 04:47:00;;;;;;;5.93;2.50;;;3.60;99.90;;;;;;5083739;28;20036;-50
2022/09/22 04:49:27;;;;;;;3.25;1.70;;;3.60;99.90;;;;;;5103183;28;20131;-48
2022/09/22 04:51:53;;;;;;;4.03;1.48;;;3.60;99.90;;;;;;5111687;28;20759;-49
2022/09/22 04:54:20;;;;;;;4.43;2.10;;;3.60;99.90;;;;;;5112884;28;20165;-48
2022/09/22 04:56:47;;;;;;;3.00;1.63;;;3.60;99.90;;;;;;5103452;28;20127;-48
2022/09/22 04:59:13;;;;;;;2.95;1.60;;;3.60;99.90;;;;;;5107564;28;20125;-48
2022/09/22 05:01:40;;;;;;;2.80;1.77;;;3.60;99.90;;;;;;5090762;28;20031;-48
2022/09/22 05:04:08;;;;;;;5.72;3.10;;;3.50;99.90;;;;;;5089201;28;20098;-47
2022/09/22 05:06:35;;;;;;;;;;;3.50;99.90;;;;;;5092153;28;20412;-49
2022/09/22 05:09:02;;;;;;;4.15;2.60;;;3.50;99.90;;;;;;5091710;28;20323;-48
2022/09/22 05:11:30;;;;;;;7.03;2.67;;;3.50;99.90;;;;;;5085927;28;20064;-48
2022/09/22 05:13:57;;;;;;;7.40;2.63;;;3.50;99.90;;;;;;5092025;28;20082;-47
2022/09/22 05:16:24;;;;;;;8.07;3.28;;;3.50;99.90;;;;;;5084626;28;20036;-47
2022/09/22 05:18:51;;;;;;;8.45;3.80;;;3.60;99.90;;;;;;5086228;28;20101;-46
2022/09/22 05:21:18;;;;;;;8.48;4.22;;;3.60;99.90;;;;;;5059234;28;20064;-46
2022/09/22 05:23:45;;;;;;;7.00;3.13;;;3.60;99.90;;;;;;5082482;28;20079;-46
2022/09/22 05:26:12;;;;;;;5.53;3.10;;;3.70;99.90;;;;;;5089397;28;20079;-46
2022/09/22 05:28:39;;;;;;;5.43;2.10;;;3.70;99.90;;;;;;5085543;28;20497;-46
2022/09/22 05:31:06;;;;;;;8.63;3.90;;;3.60;99.90;;;;;;5091713;28;20040;-46
2022/09/22 05:33:33;;;;;;;4.93;2.58;;;3.60;99.90;;;;;;5090278;28;20067;-48
2022/09/22 05:36:00;;;;;;;3.65;1.90;;;3.50;99.90;;;;;;5091680;28;20083;-48
2022/09/22 05:38:27;;;;;;;2.47;1.98;;;3.30;99.90;;;;;;5090008;28;20039;-46
2022/09/22 05:40:54;;;;;;;;;;;3.30;99.90;;;;;;5092290;28;20075;-47
2022/09/22 05:43:20;;;;;;;5.22;2.95;;;3.40;99.90;;;;;;5090814;28;20411;-46
2022/09/22 05:45:48;;;;;;;3.35;2.55;;;3.40;99.90;;;;;;5088673;28;20495;-45
2022/09/22 05:48:15;;;;;;;2.80;1.92;;;3.40;99.90;;;;;;5098948;28;20492;-46
2022/09/22 05:50:44;;;;;;;5.38;1.98;;;3.40;99.90;;;;;;5112217;28;20082;-46
2022/09/22 05:53:11;;;;;;;3.65;2.05;;;3.50;99.90;;;;;;5106426;28;20575;-46
2022/09/22 05:55:39;;;;;;;4.88;1.92;;;3.50;99.90;;;;;;5091284;28;20094;-46
2022/09/22 05:58:08;;;;;;;3.85;1.80;;;3.60;99.90;;;;;;5090758;28;20117;-46
2022/09/22 06:00:35;;;;;;;4.90;1.98;;;3.70;99.90;;;;;;5075680;28;20111;-47
2022/09/22 06:03:02;;;;;;;3.17;1.88;;;3.80;99.90;;;;;;5074724;28;20079;-47
2022/09/22 06:05:29;;;;;;;8.85;2.08;;;3.90;99.90;;;;;;5070555;28;20040;-47
2022/09/22 06:08:02;;;;;;;6.20;2.20;;;3.90;99.90;;;;;;5097542;28;20119;-47
2022/09/22 06:10:31;;;;;;;6.50;3.47;;;4.10;99.90;;;;;;5111763;28;20090;-46
2022/09/22 06:13:08;;;;;;;6.00;2.50;;;4.20;99.90;;;;;;5104231;28;20558;-46
2022/09/22 06:15:36;;;;;;;4.60;3.00;;;4.20;99.90;;;;;;5091007;28;20036;-46
2022/09/22 06:18:05;;;;;;;3.53;2.30;;;4.20;99.90;;;;;;5089838;28;20041;-46
2022/09/22 06:20:34;;;;;;;4.10;2.58;;;4.20;99.90;;;;;;5090818;28;20054;-46
2022/09/22 06:23:01;;;;;;;4.80;2.78;;;4.20;99.90;;;;;;5087056;28;20079;-46
2022/09/22 06:25:28;;;;;;;8.40;3.55;;;4.20;99.90;;;;;;5090792;28;20072;-46
2022/09/22 06:28:00;;;;;;;7.90;4.50;;;4.20;99.90;;;;;;5091122;28;20414;-47
2022/09/22 06:30:27;;;;;;;13.25;4.40;;;4.30;99.90;;;;;;5119183;22;20070;-47
2022/09/22 06:32:55;;;;;;;22.98;5.68;;;4.40;99.90;;;;;;5096949;28;20104;-46
2022/09/22 06:35:21;;;;;;;;;;;4.50;99.90;;;;;;5111498;28;20139;-46
2022/09/22 06:37:55;;;;;;;25.83;4.80;;;4.70;99.90;;;;;;5110701;28;19926;-46
2022/09/22 06:40:25;;;;;;;5.32;2.72;;;4.90;99.90;;;;;;5097992;28;20063;-46
2022/09/22 06:43:10;;;;;;;9.07;3.95;;;5.10;99.90;;;;;;5090576;28;20078;-46
2022/09/22 06:45:41;;;;;;;6.03;3.40;;;5.30;99.90;;;;;;5089672;28;20056;-46
2022/09/22 06:48:09;;;;;;;6.05;3.03;;;5.50;99.90;;;;;;5109827;27;20039;-46
2022/09/22 06:50:39;;;;;;;5.57;3.30;;;5.60;99.90;;;;;;5135552;27;20138;-46
2022/09/22 06:53:10;;;;;;;13.05;3.95;;;5.80;99.90;;;;;;5132875;27;20031;-47
2022/09/22 06:55:40;;;;;;;32.22;5.20;;;6.00;99.90;;;;;;5101972;28;20040;-45
2022/09/22 06:58:08;;;;;;;10.60;3.88;;;6.10;99.90;;;;;;5095056;28;20192;-45
2022/09/22 07:00:35;;;;;;;8.15;3.60;;;6.00;99.90;;;;;;5093588;28;20086;-46
2022/09/22 07:03:05;;;;;;;8.35;3.13;;;6.10;99.90;;;;;;5095372;28;20040;-46
2022/09/22 07:05:33;;;;;;;9.25;2.88;;;6.20;99.90;;;;;;5093621;28;20043;-45
2022/09/22 07:08:00;;;;;;;14.77;2.97;;;6.30;99.90;;;;;;5095090;28;20115;-45
2022/09/22 07:10:27;;;;;;;7.85;3.10;;;6.30;99.90;;;;;;5096654;28;20074;-45
2022/09/22 07:12:55;;;;;;;6.28;3.38;;;6.40;99.90;;;;;;5106935;28;20067;-45
2022/09/22 07:15:21;;;;;;;;;;;6.40;99.90;;;;;;5098570;28;20048;-45
2022/09/22 07:17:52;;;;;;;4.45;3.25;;;6.50;99.90;;;;;;5094655;28;20006;-47
2022/09/22 07:20:20;;;;;;;14.10;3.13;;;6.60;99.90;;;;;;5094215;28;20101;-47
2022/09/22 07:22:47;;;;;;;8.75;3.15;;;6.60;99.90;;;;;;5100199;28;20071;-45
2022/09/22 07:25:15;;;;;;;10.90;2.67;;;6.80;99.90;;;;;;5106141;28;20047;-46
2022/09/22 07:27:41;;;;;;;15.45;3.08;;;6.90;99.90;;;;;;5112332;28;20040;-46
2022/09/22 07:30:09;;;;;;;7.88;2.67;;;7.00;99.90;;;;;;5094077;28;20072;-46
2022/09/22 07:32:35;;;;;;;4.22;3.00;;;7.10;99.90;;;;;;5094297;28;20044;-46
2022/09/22 07:35:02;;;;;;;3.33;2.60;;;7.20;99.90;;;;;;5093527;28;20127;-46
2022/09/22 07:37:31;;;;;;;7.20;2.42;;;7.20;99.90;;;;;;5096994;28;20324;-46
2022/09/22 07:39:59;;;;;;;4.22;2.63;;;7.30;99.90;;;;;;5105609;28;20063;-46
2022/09/22 07:42:26;;;;;;;4.10;2.60;;;7.40;99.90;;;;;;5103228;28;20051;-46
2022/09/22 07:45:11;;;;;;;5.28;2.17;;;7.50;99.90;;;;;;5093134;28;20511;-46
2022/09/22 07:50:24;;;;;;;3.47;2.50;;;7.70;99.90;;;;;;5093425;28;20036;-46
2022/09/22 07:52:51;;;;;;;3.45;2.20;;;7.80;99.90;;;;;;5093968;28;20124;-46
2022/09/22 07:55:21;;;;;;;5.75;2.83;;;7.90;99.90;;;;;;5103452;28;20119;-46
2022/09/22 07:57:58;;;;;;;5.75;2.90;;;8.10;99.90;;;;;;5112416;28;20074;-46
2022/09/22 08:00:27;;;;;;;7.47;2.30;;;8.10;99.90;;;;;;5092523;28;20126;-47
2022/09/22 08:02:56;;;;;;;5.03;2.00;;;8.30;99.90;;;;;;5098590;28;20064;-47
2022/09/22 08:05:25;;;;;;;3.75;2.00;;;8.50;99.90;;;;;;5092595;28;20047;-46
2022/09/22 08:07:57;;;;;;;3.90;2.20;;;8.50;99.90;;;;;;5093892;28;20139;-46
2022/09/22 08:10:24;;;;;;;6.78;2.47;;;8.60;99.90;;;;;;5095829;28;20044;-45
2022/09/22 08:12:52;;;;;;;6.18;1.73;;;8.70;99.90;;;;;;5101225;28;20526;-46
2022/09/22 08:15:21;;;;;;;2.35;2.05;;;8.80;99.90;;;;;;5093913;28;20100;-46
2022/09/22 08:17:56;;;;;;;1.95;1.67;;;8.90;99.90;;;;;;5094428;28;20036;-46
2022/09/22 08:20:27;;;;;;;3.67;1.83;;;9.00;99.90;;;;;;5092000;28;20122;-46
2022/09/22 08:22:56;;;;;;;3.20;1.77;;;9.00;99.90;;;;;;5093425;28;20119;-46
2022/09/22 08:25:24;;;;;;;3.90;1.90;;;9.30;99.90;;;;;;5092110;28;20044;-46
2022/09/22 08:27:50;;;;;;;6.60;2.00;;;9.40;99.90;;;;;;5093222;28;20086;-45
2022/09/22 08:30:18;;;;;;;2.80;1.77;;;9.30;99.90;;;;;;5100539;28;20075;-48
2022/09/22 08:32:45;;;;;;;2.25;1.40;;;9.50;99.90;;;;;;5108137;28;20293;-46
2022/09/22 08:35:12;;;;;;;3.95;1.50;;;9.70;99.90;;;;;;5091654;28;20128;-46
2022/09/22 08:37:40;;;;;;;2.55;1.58;;;9.80;99.90;;;;;;5092380;28;20075;-46
2022/09/22 08:40:16;;;;;;;5.60;2.00;;;9.80;99.90;;;;;;5092870;28;20078;-46
2022/09/22 08:42:44;;;;;;;6.10;1.85;;;10.00;99.90;;;;;;5097833;28;20126;-45
2022/09/22 08:45:26;;;;;;;2.15;1.40;;;10.30;99.90;;;;;;5093620;28;20040;-46
2022/09/22 08:53:49;;;;;;;7.53;2.10;;;10.80;99.90;;;;;;5091672;28;20454;-46
2022/09/22 08:56:22;;;;;;;6.47;1.63;;;10.90;99.90;;;;;;5094082;28;20067;-45
2022/09/22 08:59:00;;;;;;;3.78;1.88;;;10.90;99.90;;;;;;5112446;28;20078;-46
2022/09/22 09:01:39;;;;;;;;;;;10.80;99.90;;;;;;5100296;28;20122;-46
2022/09/22 09:04:25;;;;;;;3.47;1.92;;;11.00;99.90;;;;;;5092003;28;19919;-45
2022/09/22 09:07:03;;;;;;;4.95;1.75;;;11.10;99.90;;;;;;5098409;28;20127;-45
2022/09/22 09:09:59;;;;;;;2.83;1.55;;;11.30;99.90;;;;;;5096033;28;20082;-47
2022/09/22 09:13:01;;;;;;;2.08;1.10;;;11.50;99.90;;;;;;5111910;28;20078;-46
2022/09/22 09:15:42;;;;;;;2.50;1.20;;;11.60;99.90;;;;;;5103232;28;20062;-46
2022/09/22 09:18:24;;;;;;;2.60;1.38;;;11.70;99.90;;;;;;5092538;28;20558;-45
2022/09/22 09:20:51;;;;;;;2.83;1.20;;;11.70;99.90;;;;;;5092078;28;20056;-46
2022/09/22 09:23:21;;;;;;;2.22;1.13;;;11.80;99.90;;;;;;5092235;28;20043;-46
2022/09/22 09:25:53;;;;;;;6.32;1.98;;;11.90;99.90;;;;;;5099499;28;20139;-46
2022/09/22 09:28:43;;;;;;;3.67;1.40;;;12.00;99.90;;;;;;5129970;27;20043;-46
2022/09/22 09:31:27;;;;;;;1.27;1.08;;;12.00;99.90;;;;;;5111845;27;20503;-45
2022/09/22 09:34:01;;;;;;;3.65;1.50;;;12.10;99.90;;;;;;5096917;28;20048;-46
2022/09/22 09:36:43;;;;;;;1.67;1.23;;;12.00;99.90;;;;;;5091324;28;20036;-46
2022/09/22 09:39:21;;;;;;;2.42;1.33;;;12.10;99.90;;;;;;5091664;28;20036;-46
2022/09/22 09:41:48;;;;;;;;;;;12.30;99.90;;;;;;5092197;28;20303;-46
2022/09/22 09:44:25;;;;;;;1.65;1.17;;;12.40;99.90;;;;;;5091848;28;20006;-46
2022/09/22 09:47:18;;;;;;;1.98;1.38;;;12.40;99.90;;;;;;5103905;28;20074;-46
2022/09/22 09:49:46;;;;;;;1.50;1.15;;;12.50;99.90;;;;;;5096538;28;20044;-46
2022/09/22 09:52:19;;;;;;;3.95;1.60;;;12.60;99.90;;;;;;5091672;28;20470;-46
2022/09/22 09:54:46;;;;;;;2.08;1.60;;;12.60;99.90;;;;;;5092291;28;20520;-46
2022/09/22 09:57:18;;;;;;;1.27;1.02;;;12.80;99.90;;;;;;5091184;28;20040;-47
2022/09/22 10:02:55;;;;;;;2.45;1.25;;;12.90;99.90;;;;;;5091059;28;20054;-47
2022/09/22 10:05:25;;;;;;;2.40;1.20;;;13.00;99.90;;;;;;5091207;28;20057;-46
2022/09/22 10:08:18;;;;;;;3.15;1.27;;;13.10;99.90;;;;;;5091494;28;20060;-46
2022/09/22 10:10:46;;;;;;;1.85;1.15;;;13.20;99.90;;;;;;5091413;28;20122;-46
2022/09/22 10:13:14;;;;;;;1.80;1.00;;;13.20;99.90;;;;;;5126766;27;20071;-46
2022/09/22 10:16:00;;;;;;;2.40;1.00;;;13.20;99.90;;;;;;5125488;27;20520;-46
2022/09/22 10:18:39;;;;;;;2.05;0.93;;;13.20;99.90;;;;;;5090800;28;20070;-46
2022/09/22 10:21:20;;;;;;;1.92;1.10;;;13.10;99.90;;;;;;5091962;28;20075;-46
2022/09/22 10:23:49;;;;;;;1.30;1.08;;;13.20;99.90;;;;;;5090559;28;20411;-46
2022/09/22 10:26:31;;;;;;;2.40;1.27;;;13.30;99.90;;;;;;5098914;28;20086;-46
2022/09/22 10:29:18;;;;;;;2.85;1.08;;;13.40;99.90;;;;;;5091023;28;20082;-48
2022/09/22 10:32:01;;;;;;;2.63;1.00;;;13.50;99.90;;;;;;5090198;28;20509;-47
2022/09/22 10:34:34;;;;;;;2.50;1.30;;;13.70;99.90;;;;;;5090581;28;20067;-47
2022/09/22 10:37:07;;;;;;;2.47;1.30;;;13.70;99.90;;;;;;5095949;28;20043;-46
2022/09/22 10:39:49;;;;;;;1.33;1.20;;;13.70;99.90;;;;;;5090939;28;20156;-46
2022/09/22 10:42:24;;;;;;;1.58;1.35;;;13.70;99.90;;;;;;5091436;28;20075;-47
2022/09/22 10:44:51;;;;;;;1.73;1.08;;;13.70;99.90;;;;;;5090505;28;20086;-47
2022/09/22 10:47:18;;;;;;;;;;;13.70;99.90;;;;;;5090730;28;20048;-47
2022/09/22 10:50:02;;;;;;;2.03;1.10;;;13.70;99.90;;;;;;5090387;28;19924;-47
2022/09/22 10:52:58;;;;;;;1.63;0.90;;;13.70;99.90;;;;;;5090770;28;20074;-46
2022/09/22 10:55:30;;;;;;;1.52;1.00;;;13.70;99.90;;;;;;5090265;28;20075;-46
2022/09/22 10:58:10;;;;;;;5.18;1.20;;;13.80;99.90;;;;;;5098187;28;20063;-46
2022/09/22 11:00:39;;;;;;;2.17;1.10;;;13.80;99.90;;;;;;5097563;28;20459;-47
2022/09/22 11:03:24;;;;;;;1.98;1.17;;;13.80;99.90;;;;;;5107767;28;20071;-47
2022/09/22 11:12:47;;;;;;;2.83;1.83;;;13.90;99.90;;;;;;5113056;28;20067;-47
2022/09/22 11:15:29;;;;;;;3.05;1.60;;;14.10;99.90;;;;;;5131677;28;20074;-46
2022/09/22 11:18:11;;;;;;;6.35;2.20;;;14.10;99.90;;;;;;5121679;28;20044;-47
2022/09/22 11:20:50;;;;;;;2.25;1.92;;;14.10;99.90;;;;;;5098450;28;20076;-48
2022/09/22 11:23:35;;;;;;;2.78;2.20;;;14.20;99.90;;;;;;5107474;28;20457;-46
2022/09/22 11:26:20;;;;;;;3.92;1.92;;;14.20;99.90;;;;;;5091181;28;20105;-46
2022/09/22 11:29:08;;;;;;;4.45;2.13;;;14.30;99.90;;;;;;5096538;28;20071;-46
2022/09/22 11:31:48;;;;;;;4.03;1.73;;;14.30;99.90;;;;;;5089953;28;20473;-46
2022/09/22 11:34:22;;;;;;;3.00;1.50;;;14.40;99.90;;;;;;5090505;28;20082;-47
2022/09/22 11:37:29;;;;;;;2.38;1.30;;;14.50;99.90;;;;;;5101678;28;20075;-46
2022/09/22 11:40:15;;;;;;;3.58;1.50;;;14.60;99.90;;;;;;5101214;28;20078;-47
2022/09/22 11:42:58;;;;;;;4.25;1.27;;;14.70;99.90;;;;;;5100967;28;20441;-46
2022/09/22 11:45:45;;;;;;;4.68;1.70;;;14.70;99.90;;;;;;5101211;28;20062;-47
2022/09/22 11:48:35;;;;;;;2.80;1.50;;;14.80;99.90;;;;;;5128641;27;20072;-46
2022/09/22 11:51:08;;;;;;;7.55;1.70;;;14.80;99.90;;;;;;5135117;27;20128;-46
2022/09/22 11:54:16;;;;;;;3.22;1.50;;;14.80;99.90;;;;;;5103217;27;20074;-46
2022/09/22 11:56:54;;;;;;;1.45;0.98;;;14.80;99.90;;;;;;5094325;28;20068;-47
2022/09/22 12:00:00;;;;;;;1.38;1.25;;;14.80;99.90;;;;;;5093440;28;20063;-46
2022/09/22 12:02:53;;;;;;;2.53;1.40;;;14.80;99.90;;;;;;5092771;28;20044;-46
2022/09/22 12:05:38;;;;;;;4.22;1.35;;;14.90;99.90;;;;;;5093446;28;20051;-46
2022/09/22 12:08:24;;;;;;;0.90;0.85;;;14.90;99.90;;;;;;5098219;28;20630;-46
2022/09/22 12:10:51;;;;;;;3.47;1.60;;;14.80;99.90;;;;;;5098808;28;20466;-47
2022/09/22 12:13:25;;;;;;;2.45;1.30;;;14.80;99.90;;;;;;5092517;28;20036;-46
2022/09/22 12:16:18;;;;;;;1.48;0.90;;;14.90;99.90;;;;;;5093458;28;20476;-46
2022/09/22 12:19:07;;;;;;;1.52;0.98;;;14.90;99.90;;;;;;5091960;28;20090;-46
2022/09/22 12:21:44;;;;;;;3.10;1.30;;;14.90;99.90;;;;;;5093389;28;20067;-46
2022/09/22 12:24:11;;;;;;;1.67;1.10;;;14.90;99.90;;;;;;5092175;28;20478;-46
2022/09/22 12:26:47;;;;;;;2.90;1.08;;;14.90;99.90;;;;;;5093415;28;20629;-46
2022/09/22 12:29:13;;;;;;;1.52;0.85;;;15.00;99.90;;;;;;5115726;22;20116;-45
2022/09/22 12:31:43;;;;;;;7.65;1.30;;;15.00;99.90;;;;;;5087627;28;20064;-45
2022/09/22 12:34:19;;;;;;;0.80;0.70;;;15.00;99.90;;;;;;5089254;28;20063;-45
2022/09/22 12:36:50;;;;;;;2.03;0.95;;;15.00;99.90;;;;;;5093021;28;20123;-45
2022/09/22 12:39:28;;;;;;;2.70;0.95;;;15.00;99.90;;;;;;5089572;28;20044;-46
2022/09/22 12:42:00;;;;;;;0.95;0.80;;;15.00;99.90;;;;;;5064134;28;20472;-45
2022/09/22 12:44:37;;;;;;;1.45;1.08;;;15.10;99.90;;;;;;5083289;28;20079;-45
2022/09/22 12:47:19;;;;;;;0.95;0.82;;;15.20;99.90;;;;;;5092298;28;20079;-45
2022/09/22 12:50:12;;;;;;;1.73;0.80;;;15.10;99.90;;;;;;5076318;28;20036;-46
2022/09/22 12:52:39;;;;;;;1.83;0.85;;;15.10;99.90;;;;;;5047490;28;20543;-46
2022/09/22 12:55:21;;;;;;;3.67;1.00;;;15.10;99.90;;;;;;5090794;28;20068;-45
2022/09/22 12:57:50;;;;;;;3.38;0.85;;;15.20;99.90;;;;;;5090850;28;20548;-45
2022/09/22 13:00:27;;;;;;;4.90;1.08;;;15.20;99.90;;;;;;5080035;28;20456;-45
2022/09/22 13:03:00;;;;;;;4.15;1.00;;;15.20;99.90;;;;;;5088027;28;20045;-46
2022/09/22 13:05:26;;;;;;;1.17;0.88;;;15.20;99.90;;;;;;5091576;28;20492;-45
2022/09/22 13:07:54;;;;;;;2.42;0.70;;;15.20;99.90;;;;;;5092520;28;20551;-45
2022/09/22 13:10:21;;;;;;;1.52;1.20;;;15.40;99.90;;;;;;5091860;28;20544;-45
2022/09/22 13:13:04;;;;;;;1.05;0.70;;;15.30;99.90;;;;;;5086054;28;20128;-46
2022/09/22 13:15:46;;;;;;;2.80;0.90;;;15.30;99.90;;;;;;5090140;28;20040;-45
2022/09/22 13:18:41;;;;;;;1.70;0.90;;;15.40;99.90;;;;;;5092323;28;20040;-47
2022/09/22 13:21:13;;;;;;;1.75;0.73;;;15.40;99.90;;;;;;5051745;28;20101;-49
2022/09/22 13:23:56;;;;;;;0.90;0.80;;;15.40;99.90;;;;;;5091200;28;20048;-45
2022/09/22 13:26:27;;;;;;;1.10;0.77;;;15.40;99.90;;;;;;5091635;28;20277;-45
2022/09/22 13:29:02;;;;;;;0.95;0.80;;;15.50;99.90;;;;;;5086652;28;20041;-45
2022/09/22 13:31:44;;;;;;;2.08;0.80;;;15.60;99.90;;;;;;5089792;28;20435;-45
2022/09/22 13:34:28;;;;;;;1.15;0.75;;;15.60;99.90;;;;;;5091751;28;20078;-46
2022/09/22 13:37:01;;;;;;;0.70;0.60;;;15.60;99.90;;;;;;5090473;28;20107;-45
2022/09/22 13:39:36;;;;;;;0.73;0.70;;;15.60;99.90;;;;;;5091249;28;20032;-46
2022/09/22 13:42:14;;;;;;;1.50;0.90;;;15.60;99.90;;;;;;5091858;28;20072;-45
2022/09/22 13:44:44;;;;;;;1.42;0.93;;;15.60;99.90;;;;;;5086567;28;20078;-47
2022/09/22 13:47:16;;;;;;;4.63;1.10;;;15.60;99.90;;;;;;5091757;28;20109;-45
2022/09/22 13:49:50;;;;;;;1.42;0.90;;;15.60;99.90;;;;;;5091115;28;20123;-45